Terminal Aerodrome Forecast
Issued by NWS

Home | Current Version | Previous Version | Text Only | Print | Product List | Glossary On
Versions: 1 2 3 4 5 6 7 8 9 10 11 12 13 14 15 16 17 18 19 20 21 22 23 24 25 26 27 28 29 30 31 32
000
FTUS43 KGRR 202300
TAFMKG
TAF
KMKG 202324Z 2100/2124 28005KT P6SM FEW040 SCT200
     FM210400 00000KT P6SM VCSH SCT040 BKN080
     FM210900 00000KT 4SM BR SCT035 BKN120
     FM211400 12004KT P6SM OVC035
     FM211600 21004KT P6SM VCTS BKN035CB BKN120=

USA.gov is the U.S. government's official web portal to all federal, state and local government web resources and services.